sensor_id;sensor_type;location;lat;lon;timestamp;P1;durP1;ratioP1;P2;durP2;ratioP2
49812;SDS011;35706;52.100;5.056;2023-07-24T00:00:09;2.17;;;1.25;;
49812;SDS011;35706;52.100;5.056;2023-07-24T00:01:10;2.22;;;1.05;;
49812;SDS011;35706;52.100;5.056;2023-07-24T00:02:12;2.55;;;1.10;;
49812;SDS011;35706;52.100;5.056;2023-07-24T00:03:13;2.22;;;1.08;;
49812;SDS011;35706;52.100;5.056;2023-07-24T00:04:13;2.55;;;1.13;;
49812;SDS011;35706;52.100;5.056;2023-07-24T00:05:14;2.40;;;0.85;;
49812;SDS011;35706;52.100;5.056;2023-07-24T00:06:14;1.67;;;1.00;;
49812;SDS011;35706;52.100;5.056;2023-07-24T00:07:14;5.45;;;1.13;;
49812;SDS011;35706;52.100;5.056;2023-07-24T00:08:15;1.80;;;1.13;;
49812;SDS011;35706;52.100;5.056;2023-07-24T00:09:15;4.82;;;1.38;;
49812;SDS011;35706;52.100;5.056;2023-07-24T00:10:15;1.83;;;1.23;;
49812;SDS011;35706;52.100;5.056;2023-07-24T00:11:16;2.60;;;1.42;;
49812;SDS011;35706;52.100;5.056;2023-07-24T00:12:16;2.95;;;1.27;;
49812;SDS011;35706;52.100;5.056;2023-07-24T00:13:16;1.80;;;1.00;;
49812;SDS011;35706;52.100;5.056;2023-07-24T00:14:17;2.10;;;1.10;;
49812;SDS011;35706;52.100;5.056;2023-07-24T00:15:17;3.08;;;0.90;;
49812;SDS011;35706;52.100;5.056;2023-07-24T00:16:20;2.35;;;1.10;;
49812;SDS011;35706;52.100;5.056;2023-07-24T00:17:21;2.58;;;1.40;;
49812;SDS011;35706;52.100;5.056;2023-07-24T00:18:21;2.88;;;1.38;;
49812;SDS011;35706;52.100;5.056;2023-07-24T00:19:21;1.80;;;1.02;;
49812;SDS011;35706;52.100;5.056;2023-07-24T00:20:22;3.10;;;1.17;;
49812;SDS011;35706;52.100;5.056;2023-07-24T00:21:24;1.73;;;0.90;;
49812;SDS011;35706;52.100;5.056;2023-07-24T00:22:24;1.80;;;1.17;;
49812;SDS011;35706;52.100;5.056;2023-07-24T00:23:24;2.90;;;1.10;;
49812;SDS011;35706;52.100;5.056;2023-07-24T00:24:25;2.67;;;0.98;;
49812;SDS011;35706;52.100;5.056;2023-07-24T00:25:25;1.60;;;0.90;;
49812;SDS011;35706;52.100;5.056;2023-07-24T00:26:25;2.22;;;1.00;;
49812;SDS011;35706;52.100;5.056;2023-07-24T00:27:26;2.00;;;1.20;;
49812;SDS011;35706;52.100;5.056;2023-07-24T00:28:26;2.33;;;1.10;;
49812;SDS011;35706;52.100;5.056;2023-07-24T00:29:26;3.40;;;1.00;;
49812;SDS011;35706;52.100;5.056;2023-07-24T00:30:27;2.25;;;1.20;;
49812;SDS011;35706;52.100;5.056;2023-07-24T00:31:27;2.50;;;1.02;;
49812;SDS011;35706;52.100;5.056;2023-07-24T00:32:27;1.77;;;1.17;;
49812;SDS011;35706;52.100;5.056;2023-07-24T00:33:28;2.15;;;1.15;;
49812;SDS011;35706;52.100;5.056;2023-07-24T00:34:28;1.67;;;0.98;;
49812;SDS011;35706;52.100;5.056;2023-07-24T00:35:29;1.83;;;1.00;;
49812;SDS011;35706;52.100;5.056;2023-07-24T00:36:29;1.70;;;0.90;;
49812;SDS011;35706;52.100;5.056;2023-07-24T00:37:29;1.55;;;0.98;;
49812;SDS011;35706;52.100;5.056;2023-07-24T00:38:30;2.97;;;1.10;;
49812;SDS011;35706;52.100;5.056;2023-07-24T00:39:30;1.98;;;1.00;;
49812;SDS011;35706;52.100;5.056;2023-07-24T00:40:30;2.63;;;1.20;;
49812;SDS011;35706;52.100;5.056;2023-07-24T00:41:31;2.42;;;1.00;;
49812;SDS011;35706;52.100;5.056;2023-07-24T00:42:31;1.70;;;1.30;;
49812;SDS011;35706;52.100;5.056;2023-07-24T00:43:31;2.08;;;1.20;;
49812;SDS011;35706;52.100;5.056;2023-07-24T00:44:32;2.00;;;1.13;;
49812;SDS011;35706;52.100;5.056;2023-07-24T00:45:32;2.65;;;1.25;;
49812;SDS011;35706;52.100;5.056;2023-07-24T00:46:33;3.30;;;1.00;;
49812;SDS011;35706;52.100;5.056;2023-07-24T00:47:34;1.90;;;1.33;;
49812;SDS011;35706;52.100;5.056;2023-07-24T00:48:35;2.70;;;1.23;;
49812;SDS011;35706;52.100;5.056;2023-07-24T00:49:35;1.95;;;1.25;;
49812;SDS011;35706;52.100;5.056;2023-07-24T00:50:36;1.80;;;1.45;;
49812;SDS011;35706;52.100;5.056;2023-07-24T00:51:37;1.65;;;1.17;;
49812;SDS011;35706;52.100;5.056;2023-07-24T00:52:38;1.58;;;1.25;;
49812;SDS011;35706;52.100;5.056;2023-07-24T00:53:38;2.10;;;1.00;;
49812;SDS011;35706;52.100;5.056;2023-07-24T00:54:39;3.50;;;1.38;;
49812;SDS011;35706;52.100;5.056;2023-07-24T00:55:40;2.75;;;1.30;;
49812;SDS011;35706;52.100;5.056;2023-07-24T00:56:42;1.88;;;1.65;;
49812;SDS011;35706;52.100;5.056;2023-07-24T00:57:44;2.88;;;1.20;;
49812;SDS011;35706;52.100;5.056;2023-07-24T00:58:45;2.10;;;1.17;;
49812;SDS011;35706;52.100;5.056;2023-07-24T00:59:45;1.50;;;1.30;;
49812;SDS011;35706;52.100;5.056;2023-07-24T01:00:46;2.15;;;1.08;;
49812;SDS011;35706;52.100;5.056;2023-07-24T01:01:46;1.80;;;1.30;;
49812;SDS011;35706;52.100;5.056;2023-07-24T01:02:47;3.05;;;1.40;;
49812;SDS011;35706;52.100;5.056;2023-07-24T01:03:48;2.78;;;1.08;;
49812;SDS011;35706;52.100;5.056;2023-07-24T01:04:49;2.30;;;1.27;;
49812;SDS011;35706;52.100;5.056;2023-07-24T01:05:49;1.90;;;1.23;;
49812;SDS011;35706;52.100;5.056;2023-07-24T01:06:50;1.80;;;1.27;;
49812;SDS011;35706;52.100;5.056;2023-07-24T01:07:50;2.80;;;1.50;;
49812;SDS011;35706;52.100;5.056;2023-07-24T01:08:52;4.13;;;1.50;;
49812;SDS011;35706;52.100;5.056;2023-07-24T01:09:52;1.70;;;1.23;;
49812;SDS011;35706;52.100;5.056;2023-07-24T01:10:53;2.00;;;1.15;;
49812;SDS011;35706;52.100;5.056;2023-07-24T01:11:59;1.80;;;1.00;;
49812;SDS011;35706;52.100;5.056;2023-07-24T01:13:19;3.50;;;1.50;;
49812;SDS011;35706;52.100;5.056;2023-07-24T01:14:26;2.90;;;1.13;;
49812;SDS011;35706;52.100;5.056;2023-07-24T01:15:34;1.60;;;1.02;;
49812;SDS011;35706;52.100;5.056;2023-07-24T01:16:38;3.33;;;1.48;;
49812;SDS011;35706;52.100;5.056;2023-07-24T01:17:43;2.22;;;1.20;;
49812;SDS011;35706;52.100;5.056;2023-07-24T01:18:48;2.05;;;1.10;;
49812;SDS011;35706;52.100;5.056;2023-07-24T01:19:53;1.45;;;1.00;;
49812;SDS011;35706;52.100;5.056;2023-07-24T01:20:56;2.92;;;1.23;;
49812;SDS011;35706;52.100;5.056;2023-07-24T01:22:01;1.88;;;0.90;;
49812;SDS011;35706;52.100;5.056;2023-07-24T01:24:37;2.50;;;1.00;;
49812;SDS011;35706;52.100;5.056;2023-07-24T01:26:06;4.70;;;1.33;;
49812;SDS011;35706;52.100;5.056;2023-07-24T01:27:07;1.80;;;1.10;;
49812;SDS011;35706;52.100;5.056;2023-07-24T01:28:07;3.00;;;1.00;;
49812;SDS011;35706;52.100;5.056;2023-07-24T01:29:08;1.60;;;0.98;;
49812;SDS011;35706;52.100;5.056;2023-07-24T01:30:08;2.90;;;1.00;;
49812;SDS011;35706;52.100;5.056;2023-07-24T01:31:09;2.13;;;1.00;;
49812;SDS011;35706;52.100;5.056;2023-07-24T01:32:10;2.67;;;1.13;;
49812;SDS011;35706;52.100;5.056;2023-07-24T01:33:10;3.33;;;0.93;;
49812;SDS011;35706;52.100;5.056;2023-07-24T01:34:10;2.40;;;0.90;;
49812;SDS011;35706;52.100;5.056;2023-07-24T01:35:11;1.55;;;0.80;;
49812;SDS011;35706;52.100;5.056;2023-07-24T01:36:12;2.45;;;1.00;;
49812;SDS011;35706;52.100;5.056;2023-07-24T01:37:14;2.60;;;1.02;;
49812;SDS011;35706;52.100;5.056;2023-07-24T01:38:16;3.58;;;1.33;;
49812;SDS011;35706;52.100;5.056;2023-07-24T01:39:17;1.70;;;0.80;;
49812;SDS011;35706;52.100;5.056;2023-07-24T01:40:20;1.75;;;1.23;;
49812;SDS011;35706;52.100;5.056;2023-07-24T01:41:21;1.60;;;1.00;;
49812;SDS011;35706;52.100;5.056;2023-07-24T01:42:23;2.58;;;0.90;;
49812;SDS011;35706;52.100;5.056;2023-07-24T01:43:25;3.22;;;1.00;;
49812;SDS011;35706;52.100;5.056;2023-07-24T01:44:28;2.00;;;1.10;;
49812;SDS011;35706;52.100;5.056;2023-07-24T01:45:28;4.47;;;1.10;;
49812;SDS011;35706;52.100;5.056;2023-07-24T01:46:29;1.77;;;0.95;;
49812;SDS011;35706;52.100;5.056;2023-07-24T01:47:29;2.78;;;1.05;;
49812;SDS011;35706;52.100;5.056;2023-07-24T01:48:30;1.70;;;0.90;;
49812;SDS011;35706;52.100;5.056;2023-07-24T01:49:30;1.45;;;0.90;;
49812;SDS011;35706;52.100;5.056;2023-07-24T01:50:31;2.47;;;1.25;;
49812;SDS011;35706;52.100;5.056;2023-07-24T01:51:32;2.50;;;1.10;;
49812;SDS011;35706;52.100;5.056;2023-07-24T01:52:32;1.65;;;1.00;;
49812;SDS011;35706;52.100;5.056;2023-07-24T01:53:32;1.80;;;1.00;;
49812;SDS011;35706;52.100;5.056;2023-07-24T01:54:33;1.83;;;0.90;;
49812;SDS011;35706;52.100;5.056;2023-07-24T01:55:33;2.67;;;1.20;;
49812;SDS011;35706;52.100;5.056;2023-07-24T01:56:35;3.05;;;0.98;;
49812;SDS011;35706;52.100;5.056;2023-07-24T01:57:36;2.40;;;1.13;;
49812;SDS011;35706;52.100;5.056;2023-07-24T01:58:36;1.90;;;1.20;;
49812;SDS011;35706;52.100;5.056;2023-07-24T01:59:36;3.33;;;1.25;;
49812;SDS011;35706;52.100;5.056;2023-07-24T02:00:37;2.33;;;1.05;;
49812;SDS011;35706;52.100;5.056;2023-07-24T02:01:37;1.98;;;1.00;;
49812;SDS011;35706;52.100;5.056;2023-07-24T02:02:37;1.60;;;1.10;;
49812;SDS011;35706;52.100;5.056;2023-07-24T02:03:38;2.15;;;1.10;;
49812;SDS011;35706;52.100;5.056;2023-07-24T02:04:39;2.15;;;1.20;;
49812;SDS011;35706;52.100;5.056;2023-07-24T02:05:39;2.00;;;1.23;;
49812;SDS011;35706;52.100;5.056;2023-07-24T02:06:40;1.98;;;1.00;;
49812;SDS011;35706;52.100;5.056;2023-07-24T02:07:40;1.85;;;1.02;;
49812;SDS011;35706;52.100;5.056;2023-07-24T02:08:41;4.47;;;1.20;;
49812;SDS011;35706;52.100;5.056;2023-07-24T02:09:45;1.38;;;0.90;;
49812;SDS011;35706;52.100;5.056;2023-07-24T02:10:48;1.90;;;1.20;;
49812;SDS011;35706;52.100;5.056;2023-07-24T02:11:50;2.28;;;1.17;;
49812;SDS011;35706;52.100;5.056;2023-07-24T02:12:50;1.40;;;0.90;;
49812;SDS011;35706;52.100;5.056;2023-07-24T02:13:50;2.22;;;1.13;;
49812;SDS011;35706;52.100;5.056;2023-07-24T02:14:51;2.42;;;1.17;;
49812;SDS011;35706;52.100;5.056;2023-07-24T02:15:51;2.95;;;1.10;;
49812;SDS011;35706;52.100;5.056;2023-07-24T02:16:53;1.92;;;1.08;;
49812;SDS011;35706;52.100;5.056;2023-07-24T02:17:54;3.65;;;1.20;;
49812;SDS011;35706;52.100;5.056;2023-07-24T02:18:54;2.03;;;1.00;;
49812;SDS011;35706;52.100;5.056;2023-07-24T02:19:54;1.48;;;0.95;;
49812;SDS011;35706;52.100;5.056;2023-07-24T02:20:54;1.45;;;0.93;;
49812;SDS011;35706;52.100;5.056;2023-07-24T02:21:55;2.22;;;1.02;;
49812;SDS011;35706;52.100;5.056;2023-07-24T02:22:55;2.10;;;0.90;;
49812;SDS011;35706;52.100;5.056;2023-07-24T02:23:55;1.80;;;0.93;;
49812;SDS011;35706;52.100;5.056;2023-07-24T02:24:56;3.15;;;0.90;;
49812;SDS011;35706;52.100;5.056;2023-07-24T02:25:56;4.80;;;1.15;;
49812;SDS011;35706;52.100;5.056;2023-07-24T02:26:56;3.15;;;0.90;;
49812;SDS011;35706;52.100;5.056;2023-07-24T02:27:57;1.95;;;1.02;;
49812;SDS011;35706;52.100;5.056;2023-07-24T02:28:57;2.60;;;0.90;;
49812;SDS011;35706;52.100;5.056;2023-07-24T02:29:58;1.40;;;1.00;;
49812;SDS011;35706;52.100;5.056;2023-07-24T02:30:58;1.50;;;1.08;;
49812;SDS011;35706;52.100;5.056;2023-07-24T02:32:00;2.97;;;1.17;;
49812;SDS011;35706;52.100;5.056;2023-07-24T02:33:00;2.17;;;1.10;;
49812;SDS011;35706;52.100;5.056;2023-07-24T02:34:00;2.25;;;1.20;;
49812;SDS011;35706;52.100;5.056;2023-07-24T02:35:01;1.67;;;1.25;;
49812;SDS011;35706;52.100;5.056;2023-07-24T02:36:01;1.83;;;0.90;;
49812;SDS011;35706;52.100;5.056;2023-07-24T02:37:02;4.10;;;1.00;;
49812;SDS011;35706;52.100;5.056;2023-07-24T02:38:02;2.22;;;0.98;;
49812;SDS011;35706;52.100;5.056;2023-07-24T02:39:02;2.22;;;1.05;;
49812;SDS011;35706;52.100;5.056;2023-07-24T02:40:03;3.20;;;1.00;;
49812;SDS011;35706;52.100;5.056;2023-07-24T02:41:03;2.25;;;1.00;;
49812;SDS011;35706;52.100;5.056;2023-07-24T02:42:04;1.75;;;1.10;;
49812;SDS011;35706;52.100;5.056;2023-07-24T02:43:04;1.60;;;0.90;;
49812;SDS011;35706;52.100;5.056;2023-07-24T02:44:05;2.72;;;0.93;;
49812;SDS011;35706;52.100;5.056;2023-07-24T02:45:06;3.08;;;1.00;;
49812;SDS011;35706;52.100;5.056;2023-07-24T02:46:10;1.77;;;1.00;;
49812;SDS011;35706;52.100;5.056;2023-07-24T02:47:11;3.17;;;1.00;;
49812;SDS011;35706;52.100;5.056;2023-07-24T02:48:11;2.20;;;1.20;;
49812;SDS011;35706;52.100;5.056;2023-07-24T02:49:11;4.38;;;0.90;;
49812;SDS011;35706;52.100;5.056;2023-07-24T02:50:12;3.20;;;1.10;;
49812;SDS011;35706;52.100;5.056;2023-07-24T02:51:12;1.80;;;1.10;;
49812;SDS011;35706;52.100;5.056;2023-07-24T02:52:12;3.72;;;1.13;;
49812;SDS011;35706;52.100;5.056;2023-07-24T02:53:13;2.97;;;1.10;;
49812;SDS011;35706;52.100;5.056;2023-07-24T02:54:13;1.30;;;0.90;;
49812;SDS011;35706;52.100;5.056;2023-07-24T02:55:13;1.70;;;1.08;;
49812;SDS011;35706;52.100;5.056;2023-07-24T02:56:13;3.55;;;1.08;;
49812;SDS011;35706;52.100;5.056;2023-07-24T02:57:14;3.25;;;1.00;;
49812;SDS011;35706;52.100;5.056;2023-07-24T02:58:14;2.40;;;1.25;;
49812;SDS011;35706;52.100;5.056;2023-07-24T02:59:14;2.90;;;1.10;;
49812;SDS011;35706;52.100;5.056;2023-07-24T03:00:15;2.97;;;1.30;;
49812;SDS011;35706;52.100;5.056;2023-07-24T03:01:15;4.03;;;1.30;;
49812;SDS011;35706;52.100;5.056;2023-07-24T03:02:15;1.52;;;1.00;;
49812;SDS011;35706;52.100;5.056;2023-07-24T03:03:16;3.65;;;1.40;;
49812;SDS011;35706;52.100;5.056;2023-07-24T03:04:16;2.13;;;1.33;;
49812;SDS011;35706;52.100;5.056;2023-07-24T03:05:17;2.63;;;1.30;;
49812;SDS011;35706;52.100;5.056;2023-07-24T03:06:17;2.28;;;1.20;;
49812;SDS011;35706;52.100;5.056;2023-07-24T03:07:17;2.05;;;1.33;;
49812;SDS011;35706;52.100;5.056;2023-07-24T03:08:17;2.65;;;1.30;;
49812;SDS011;35706;52.100;5.056;2023-07-24T03:09:18;6.07;;;1.35;;
49812;SDS011;35706;52.100;5.056;2023-07-24T03:10:18;3.60;;;1.35;;
49812;SDS011;35706;52.100;5.056;2023-07-24T03:11:19;4.35;;;1.80;;
49812;SDS011;35706;52.100;5.056;2023-07-24T03:12:19;5.32;;;1.48;;
49812;SDS011;35706;52.100;5.056;2023-07-24T03:13:19;3.78;;;1.50;;
49812;SDS011;35706;52.100;5.056;2023-07-24T03:14:20;2.97;;;1.35;;
49812;SDS011;35706;52.100;5.056;2023-07-24T03:15:20;3.17;;;1.85;;
49812;SDS011;35706;52.100;5.056;2023-07-24T03:16:20;2.55;;;1.42;;
49812;SDS011;35706;52.100;5.056;2023-07-24T03:17:22;3.13;;;1.90;;
49812;SDS011;35706;52.100;5.056;2023-07-24T03:18:23;4.35;;;1.98;;
49812;SDS011;35706;52.100;5.056;2023-07-24T03:19:24;2.83;;;1.60;;
49812;SDS011;35706;52.100;5.056;2023-07-24T03:20:24;2.42;;;1.63;;
49812;SDS011;35706;52.100;5.056;2023-07-24T03:21:24;4.10;;;2.63;;
49812;SDS011;35706;52.100;5.056;2023-07-24T03:22:25;2.75;;;1.95;;
49812;SDS011;35706;52.100;5.056;2023-07-24T03:23:25;3.25;;;2.05;;
49812;SDS011;35706;52.100;5.056;2023-07-24T03:24:26;6.20;;;2.63;;
49812;SDS011;35706;52.100;5.056;2023-07-24T03:25:27;3.42;;;2.30;;
49812;SDS011;35706;52.100;5.056;2023-07-24T03:26:28;3.70;;;2.35;;
49812;SDS011;35706;52.100;5.056;2023-07-24T03:27:28;4.05;;;2.15;;
49812;SDS011;35706;52.100;5.056;2023-07-24T03:28:28;2.28;;;2.08;;
49812;SDS011;35706;52.100;5.056;2023-07-24T03:29:28;4.07;;;1.73;;
49812;SDS011;35706;52.100;5.056;2023-07-24T03:30:29;4.65;;;2.70;;
49812;SDS011;35706;52.100;5.056;2023-07-24T03:31:29;4.93;;;2.42;;
49812;SDS011;35706;52.100;5.056;2023-07-24T03:32:30;4.93;;;2.00;;
49812;SDS011;35706;52.100;5.056;2023-07-24T03:33:30;5.80;;;2.78;;
49812;SDS011;35706;52.100;5.056;2023-07-24T03:34:30;3.45;;;1.88;;
49812;SDS011;35706;52.100;5.056;2023-07-24T03:35:31;2.20;;;1.90;;
49812;SDS011;35706;52.100;5.056;2023-07-24T03:36:31;3.53;;;2.33;;
49812;SDS011;35706;52.100;5.056;2023-07-24T03:37:31;2.00;;;1.73;;
49812;SDS011;35706;52.100;5.056;2023-07-24T03:38:32;2.83;;;2.05;;
49812;SDS011;35706;52.100;5.056;2023-07-24T03:39:34;4.82;;;2.85;;
49812;SDS011;35706;52.100;5.056;2023-07-24T03:40:34;3.72;;;2.55;;
49812;SDS011;35706;52.100;5.056;2023-07-24T03:41:35;3.03;;;2.38;;
49812;SDS011;35706;52.100;5.056;2023-07-24T03:42:35;3.10;;;2.10;;
49812;SDS011;35706;52.100;5.056;2023-07-24T03:43:35;3.70;;;2.13;;
49812;SDS011;35706;52.100;5.056;2023-07-24T03:44:36;4.10;;;2.47;;
49812;SDS011;35706;52.100;5.056;2023-07-24T03:45:36;5.20;;;2.80;;
49812;SDS011;35706;52.100;5.056;2023-07-24T03:46:37;5.78;;;2.90;;
49812;SDS011;35706;52.100;5.056;2023-07-24T03:47:37;6.82;;;2.40;;
49812;SDS011;35706;52.100;5.056;2023-07-24T03:48:38;4.60;;;2.17;;
49812;SDS011;35706;52.100;5.056;2023-07-24T03:49:38;3.35;;;2.10;;
49812;SDS011;35706;52.100;5.056;2023-07-24T03:50:40;4.00;;;1.90;;
49812;SDS011;35706;52.100;5.056;2023-07-24T03:51:40;3.33;;;2.22;;
49812;SDS011;35706;52.100;5.056;2023-07-24T03:52:41;7.10;;;2.63;;
49812;SDS011;35706;52.100;5.056;2023-07-24T03:53:41;3.92;;;2.20;;
49812;SDS011;35706;52.100;5.056;2023-07-24T03:54:42;3.38;;;3.08;;
49812;SDS011;35706;52.100;5.056;2023-07-24T03:55:42;4.75;;;2.00;;
49812;SDS011;35706;52.100;5.056;2023-07-24T03:56:43;5.53;;;2.45;;
49812;SDS011;35706;52.100;5.056;2023-07-24T03:57:43;4.00;;;2.40;;
49812;SDS011;35706;52.100;5.056;2023-07-24T03:58:44;3.00;;;2.30;;
49812;SDS011;35706;52.100;5.056;2023-07-24T03:59:45;4.72;;;2.35;;
49812;SDS011;35706;52.100;5.056;2023-07-24T04:00:45;3.72;;;2.60;;
49812;SDS011;35706;52.100;5.056;2023-07-24T04:01:46;3.47;;;2.78;;
49812;SDS011;35706;52.100;5.056;2023-07-24T04:02:47;7.10;;;2.22;;
49812;SDS011;35706;52.100;5.056;2023-07-24T04:03:47;3.75;;;2.40;;
49812;SDS011;35706;52.100;5.056;2023-07-24T04:04:47;2.92;;;2.25;;
49812;SDS011;35706;52.100;5.056;2023-07-24T04:05:48;5.72;;;2.30;;
49812;SDS011;35706;52.100;5.056;2023-07-24T04:06:48;3.70;;;2.25;;
49812;SDS011;35706;52.100;5.056;2023-07-24T04:07:48;2.55;;;2.30;;
49812;SDS011;35706;52.100;5.056;2023-07-24T04:08:49;3.45;;;2.17;;
49812;SDS011;35706;52.100;5.056;2023-07-24T04:09:49;6.03;;;1.98;;
49812;SDS011;35706;52.100;5.056;2023-07-24T04:10:49;3.42;;;1.77;;
49812;SDS011;35706;52.100;5.056;2023-07-24T04:11:50;2.55;;;2.15;;
49812;SDS011;35706;52.100;5.056;2023-07-24T04:12:50;5.88;;;2.85;;
49812;SDS011;35706;52.100;5.056;2023-07-24T04:13:50;2.88;;;2.58;;
49812;SDS011;35706;52.100;5.056;2023-07-24T04:14:51;2.30;;;1.88;;
49812;SDS011;35706;52.100;5.056;2023-07-24T04:15:51;2.58;;;2.15;;
49812;SDS011;35706;52.100;5.056;2023-07-24T04:16:51;3.75;;;2.05;;
49812;SDS011;35706;52.100;5.056;2023-07-24T04:17:52;2.83;;;2.33;;
49812;SDS011;35706;52.100;5.056;2023-07-24T04:18:52;3.45;;;1.70;;
49812;SDS011;35706;52.100;5.056;2023-07-24T04:19:52;3.42;;;1.80;;
49812;SDS011;35706;52.100;5.056;2023-07-24T04:20:53;3.13;;;2.10;;
49812;SDS011;35706;52.100;5.056;2023-07-24T04:21:53;2.50;;;2.25;;
49812;SDS011;35706;52.100;5.056;2023-07-24T04:22:53;4.30;;;1.98;;
49812;SDS011;35706;52.100;5.056;2023-07-24T04:23:54;3.50;;;2.00;;
49812;SDS011;35706;52.100;5.056;2023-07-24T04:24:54;4.05;;;2.58;;
49812;SDS011;35706;52.100;5.056;2023-07-24T04:25:54;3.08;;;1.90;;
49812;SDS011;35706;52.100;5.056;2023-07-24T04:26:55;4.57;;;2.03;;
49812;SDS011;35706;52.100;5.056;2023-07-24T04:27:55;3.97;;;1.90;;
49812;SDS011;35706;52.100;5.056;2023-07-24T04:28:55;9.13;;;2.97;;
49812;SDS011;35706;52.100;5.056;2023-07-24T04:29:56;2.70;;;2.15;;
49812;SDS011;35706;52.100;5.056;2023-07-24T04:30:59;3.33;;;2.47;;
49812;SDS011;35706;52.100;5.056;2023-07-24T04:32:01;6.55;;;2.00;;
49812;SDS011;35706;52.100;5.056;2023-07-24T04:33:01;4.25;;;2.10;;
49812;SDS011;35706;52.100;5.056;2023-07-24T04:34:02;6.32;;;2.33;;
49812;SDS011;35706;52.100;5.056;2023-07-24T04:35:02;4.47;;;1.70;;
49812;SDS011;35706;52.100;5.056;2023-07-24T04:36:03;6.10;;;2.25;;
49812;SDS011;35706;52.100;5.056;2023-07-24T04:37:04;3.00;;;2.03;;
49812;SDS011;35706;52.100;5.056;2023-07-24T04:38:04;2.92;;;1.60;;
49812;SDS011;35706;52.100;5.056;2023-07-24T04:39:04;4.35;;;2.67;;
49812;SDS011;35706;52.100;5.056;2023-07-24T04:40:05;3.25;;;2.70;;
49812;SDS011;35706;52.100;5.056;2023-07-24T04:41:06;4.80;;;2.60;;
49812;SDS011;35706;52.100;5.056;2023-07-24T04:42:06;4.32;;;2.03;;
49812;SDS011;35706;52.100;5.056;2023-07-24T04:43:06;3.20;;;2.42;;
49812;SDS011;35706;52.100;5.056;2023-07-24T04:44:07;6.55;;;2.58;;
49812;SDS011;35706;52.100;5.056;2023-07-24T04:45:07;3.85;;;2.20;;
49812;SDS011;35706;52.100;5.056;2023-07-24T04:46:08;3.45;;;2.40;;
49812;SDS011;35706;52.100;5.056;2023-07-24T04:47:08;4.20;;;2.28;;
49812;SDS011;35706;52.100;5.056;2023-07-24T04:48:09;3.90;;;2.30;;
49812;SDS011;35706;52.100;5.056;2023-07-24T04:49:09;3.97;;;2.60;;
49812;SDS011;35706;52.100;5.056;2023-07-24T04:50:10;7.10;;;2.63;;
49812;SDS011;35706;52.100;5.056;2023-07-24T04:51:10;5.82;;;2.97;;
49812;SDS011;35706;52.100;5.056;2023-07-24T04:52:10;4.50;;;2.28;;
49812;SDS011;35706;52.100;5.056;2023-07-24T04:53:10;6.43;;;2.53;;
49812;SDS011;35706;52.100;5.056;2023-07-24T04:54:11;5.65;;;2.63;;
49812;SDS011;35706;52.100;5.056;2023-07-24T04:55:11;6.20;;;2.40;;
49812;SDS011;35706;52.100;5.056;2023-07-24T04:56:11;5.05;;;2.05;;
49812;SDS011;35706;52.100;5.056;2023-07-24T04:57:12;5.50;;;1.90;;
49812;SDS011;35706;52.100;5.056;2023-07-24T04:58:12;6.22;;;2.40;;
49812;SDS011;35706;52.100;5.056;2023-07-24T04:59:12;4.97;;;2.60;;
49812;SDS011;35706;52.100;5.056;2023-07-24T05:00:13;5.32;;;2.15;;
49812;SDS011;35706;52.100;5.056;2023-07-24T05:01:14;5.97;;;2.80;;
49812;SDS011;35706;52.100;5.056;2023-07-24T05:02:14;8.77;;;3.20;;
49812;SDS011;35706;52.100;5.056;2023-07-24T05:03:14;4.38;;;2.15;;
49812;SDS011;35706;52.100;5.056;2023-07-24T05:04:17;6.65;;;2.28;;
49812;SDS011;35706;52.100;5.056;2023-07-24T05:05:17;6.50;;;3.00;;
49812;SDS011;35706;52.100;5.056;2023-07-24T05:06:18;10.35;;;3.45;;
49812;SDS011;35706;52.100;5.056;2023-07-24T05:07:18;6.35;;;3.22;;
49812;SDS011;35706;52.100;5.056;2023-07-24T05:08:18;8.30;;;2.90;;
49812;SDS011;35706;52.100;5.056;2023-07-24T05:09:19;5.97;;;3.30;;
49812;SDS011;35706;52.100;5.056;2023-07-24T05:10:19;5.07;;;3.00;;
49812;SDS011;35706;52.100;5.056;2023-07-24T05:11:19;6.43;;;3.50;;
49812;SDS011;35706;52.100;5.056;2023-07-24T05:12:19;4.68;;;2.40;;
49812;SDS011;35706;52.100;5.056;2023-07-24T05:13:20;5.55;;;3.20;;
49812;SDS011;35706;52.100;5.056;2023-07-24T05:14:20;5.78;;;2.47;;
49812;SDS011;35706;52.100;5.056;2023-07-24T05:15:21;6.32;;;2.65;;
49812;SDS011;35706;52.100;5.056;2023-07-24T05:16:21;7.43;;;2.80;;
49812;SDS011;35706;52.100;5.056;2023-07-24T05:17:22;9.25;;;2.72;;
49812;SDS011;35706;52.100;5.056;2023-07-24T05:18:22;6.65;;;2.75;;
49812;SDS011;35706;52.100;5.056;2023-07-24T05:19:22;3.65;;;2.72;;
49812;SDS011;35706;52.100;5.056;2023-07-24T05:20:23;3.92;;;2.40;;
49812;SDS011;35706;52.100;5.056;2023-07-24T05:21:23;4.60;;;2.88;;
49812;SDS011;35706;52.100;5.056;2023-07-24T05:22:23;6.20;;;2.80;;
49812;SDS011;35706;52.100;5.056;2023-07-24T05:23:25;5.53;;;2.40;;
49812;SDS011;35706;52.100;5.056;2023-07-24T05:24:25;3.40;;;2.92;;
49812;SDS011;35706;52.100;5.056;2023-07-24T05:25:26;5.80;;;2.65;;
49812;SDS011;35706;52.100;5.056;2023-07-24T05:26:26;6.45;;;2.67;;
49812;SDS011;35706;52.100;5.056;2023-07-24T05:27:26;6.60;;;2.75;;
49812;SDS011;35706;52.100;5.056;2023-07-24T05:28:27;5.90;;;2.60;;
49812;SDS011;35706;52.100;5.056;2023-07-24T05:29:29;5.72;;;2.45;;
49812;SDS011;35706;52.100;5.056;2023-07-24T05:30:29;4.38;;;2.80;;
49812;SDS011;35706;52.100;5.056;2023-07-24T05:31:29;4.45;;;2.70;;
49812;SDS011;35706;52.100;5.056;2023-07-24T05:32:29;8.65;;;2.42;;
49812;SDS011;35706;52.100;5.056;2023-07-24T05:33:30;6.13;;;2.33;;
49812;SDS011;35706;52.100;5.056;2023-07-24T05:34:31;4.93;;;2.78;;
49812;SDS011;35706;52.100;5.056;2023-07-24T05:35:31;5.10;;;2.92;;
49812;SDS011;35706;52.100;5.056;2023-07-24T05:36:32;5.95;;;2.60;;
49812;SDS011;35706;52.100;5.056;2023-07-24T05:37:32;5.70;;;2.30;;
49812;SDS011;35706;52.100;5.056;2023-07-24T05:38:32;5.97;;;2.25;;
49812;SDS011;35706;52.100;5.056;2023-07-24T05:39:33;2.75;;;1.95;;
49812;SDS011;35706;52.100;5.056;2023-07-24T05:40:33;5.15;;;1.65;;
49812;SDS011;35706;52.100;5.056;2023-07-24T05:41:33;7.95;;;2.25;;
49812;SDS011;35706;52.100;5.056;2023-07-24T05:42:34;8.85;;;2.53;;
49812;SDS011;35706;52.100;5.056;2023-07-24T05:43:41;8.60;;;2.45;;
49812;SDS011;35706;52.100;5.056;2023-07-24T05:44:41;7.38;;;2.15;;
49812;SDS011;35706;52.100;5.056;2023-07-24T05:45:41;4.53;;;2.25;;
49812;SDS011;35706;52.100;5.056;2023-07-24T05:46:42;3.97;;;1.85;;
49812;SDS011;35706;52.100;5.056;2023-07-24T05:47:42;3.30;;;2.08;;
49812;SDS011;35706;52.100;5.056;2023-07-24T05:48:43;5.13;;;1.95;;
49812;SDS011;35706;52.100;5.056;2023-07-24T05:49:43;5.47;;;1.67;;
49812;SDS011;35706;52.100;5.056;2023-07-24T05:50:43;4.95;;;2.10;;
49812;SDS011;35706;52.100;5.056;2023-07-24T05:51:44;6.35;;;2.08;;
49812;SDS011;35706;52.100;5.056;2023-07-24T05:52:44;3.78;;;1.40;;
49812;SDS011;35706;52.100;5.056;2023-07-24T05:53:44;3.55;;;1.80;;
49812;SDS011;35706;52.100;5.056;2023-07-24T05:54:45;5.25;;;1.50;;
49812;SDS011;35706;52.100;5.056;2023-07-24T05:55:45;3.78;;;1.70;;
49812;SDS011;35706;52.100;5.056;2023-07-24T05:56:46;8.15;;;1.73;;
49812;SDS011;35706;52.100;5.056;2023-07-24T05:57:46;5.82;;;1.85;;
49812;SDS011;35706;52.100;5.056;2023-07-24T05:58:46;6.20;;;1.92;;
49812;SDS011;35706;52.100;5.056;2023-07-24T05:59:47;9.00;;;1.65;;
49812;SDS011;35706;52.100;5.056;2023-07-24T06:00:47;4.13;;;1.83;;
49812;SDS011;35706;52.100;5.056;2023-07-24T06:01:48;6.75;;;1.50;;
49812;SDS011;35706;52.100;5.056;2023-07-24T06:02:48;3.50;;;1.92;;
49812;SDS011;35706;52.100;5.056;2023-07-24T06:03:49;3.92;;;1.63;;
49812;SDS011;35706;52.100;5.056;2023-07-24T06:04:49;4.22;;;1.90;;
49812;SDS011;35706;52.100;5.056;2023-07-24T06:05:53;2.85;;;1.65;;
49812;SDS011;35706;52.100;5.056;2023-07-24T06:06:54;4.80;;;1.70;;
49812;SDS011;35706;52.100;5.056;2023-07-24T06:07:54;3.35;;;1.35;;